Terminal Aerodrome Forecast
Issued by NWS

Current Version | Previous Version | Graphics & Text | Print | Product List | Glossary On
Versions: 1 2 3 4 5 6 7 8 9 10 11 12 13 14 15
000
FTUS41 KRLX 271700
TAFCKB
TAF
KCKB 271731Z 2718/2818 20008KT P6SM SKC
     FM280600 24005KT 5SM -RA BR OVC003
     FM281200 26004KT 2SM -RA BR OVC015
     FM281400 VRB03KT 1 1/2SM -RA BR OVC008=

USA.gov is the U.S. government's official web portal to all federal, state and local government web resources and services.